Portada
METAR-TAF:

METAR-TAF

Aeroports :

East Hampton Airport

East Hampton, Nova York, Estats Units d'Amèrica

latitud: 40-57-34N, longitud: 072-15-07W, altitud: 17 m

Observació

L'informe es va fer fa 23 minuts, a les 11:55 UTC
Vent calma
Temperatura 17°C
Humitat 100%
Pressió 1024 hPa
Visibilitat: 0.4 km
Cel cobert a una alçada de 300 ft
boira

METAR: KHTO 221155Z AUTO 00000KT 1/4SM FG OVC003 17/17 A3025 RMK AO2 T01700168 10170 20163

Hora: 08:18 (12:18 UTC)


TAF: manca

Observacions i pronòstics meteorològics de més de 4000 aeroports (METAR i TAF).

Les estacions disponibles són els punts grocs i vermells al mapa.

Posi el ratolí al punt desitjat per veure el nom de l'estació.

Feu clic per veure les observacions i els pronòstics meteorològics.

Per canviar el mapa: feu clic els botons verds amb una creu de color negre per apropar; al botó verd amb un guió per allunyar la imatge; o en les fletxes verdes per a mapes adjacents.


METAR-TAF: